< Typhoon 197422 1974 Season Typhoon 197424 >
Typhoon 197423 (BESS)
General InformationTrack Information on Google Maps || Disaster Info.ResourceGoogle EarthGE AnimationAtom FeedGeoJSON
Detalied Best Track (Time Zone = UTC)
Year Month Day Hour Lat. Long. Pressure (hPa) Wind (kt) Class Image Chart
1974 10 7 00 11.0 142.9 1004 0 2 -- Chart
1974 10 7 06 11.0 141.0 1004 0 2 -- Chart
1974 10 7 12 11.4 139.2 1004 0 2 -- Chart
1974 10 7 18 11.7 137.4 1004 0 2 -- Chart
1974 10 8 00 11.9 136.1 1004 0 2 -- Chart
1974 10 8 06 12.0 135.0 1002 0 2 -- Chart
1974 10 8 12 12.1 134.3 1002 0 9 -- Chart
1974 10 8 18 12.9 131.2 1000 0 9 -- Chart
1974 10 9 00 14.0 129.7 998 0 9 -- Chart
1974 10 9 06 14.7 128.8 992 0 9 -- Chart
1974 10 9 12 15.3 128.1 990 0 9 -- Chart
1974 10 9 18 15.9 127.4 985 0 9 -- Chart
1974 10 10 00 16.6 126.2 985 0 9 -- Chart
1974 10 10 06 17.0 125.3 985 0 9 -- Chart
1974 10 10 12 17.4 124.5 980 0 9 -- Chart
1974 10 10 18 17.8 123.5 980 0 9 -- Chart
1974 10 11 00 17.7 122.5 975 0 9 -- Chart
1974 10 11 06 17.6 121.3 975 0 9 -- Chart
1974 10 11 12 17.7 120.4 980 0 9 -- Chart
1974 10 11 18 18.3 119.3 980 0 9 -- Chart
1974 10 12 00 18.9 118.2 980 0 9 -- Chart
1974 10 12 06 19.1 117.5 980 0 9 -- Chart
1974 10 12 12 19.2 116.5 980 0 9 -- Chart
1974 10 12 18 19.3 115.2 985 0 9 -- Chart
1974 10 13 00 19.3 113.5 985 0 9 -- Chart
1974 10 13 06 19.3 112.0 990 0 9 -- Chart
1974 10 13 12 19.2 111.6 992 0 9 -- Chart
1974 10 13 18 19.2 109.1 996 0 2 -- Chart
1974 10 14 00 19.1 107.5 1004 0 2 -- Chart
1974 10 14 06 19.0 106.0 1004 0 2 -- Chart
1974 10 14 12 19.0 104.0 1004 0 2 -- Chart
Japan Meteorological Agency Best Track Data | Correction Date : 1990-10-17
< Typhoon 197422 1974 Season Typhoon 197424 >

Help